sensor_id;sensor_type;location;lat;lon;timestamp;temperature;humidity
5476;DHT22;2760;50.000;9.194;2023-02-20T00:01:31;11.60;99.90
5476;DHT22;2760;50.000;9.194;2023-02-20T00:03:58;9.20;99.90
5476;DHT22;2760;50.000;9.194;2023-02-20T00:06:25;11.60;99.90
5476;DHT22;2760;50.000;9.194;2023-02-20T00:08:54;9.20;99.90
5476;DHT22;2760;50.000;9.194;2023-02-20T00:11:21;11.50;99.90
5476;DHT22;2760;50.000;9.194;2023-02-20T00:13:48;9.00;99.90
5476;DHT22;2760;50.000;9.194;2023-02-20T00:16:18;11.10;99.90
5476;DHT22;2760;50.000;9.194;2023-02-20T00:18:45;11.10;99.90
5476;DHT22;2760;50.000;9.194;2023-02-20T00:21:12;10.50;99.90
5476;DHT22;2760;50.000;9.194;2023-02-20T00:23:39;8.00;99.90
5476;DHT22;2760;50.000;9.194;2023-02-20T00:26:09;10.70;99.90
5476;DHT22;2760;50.000;9.194;2023-02-20T00:28:37;9.00;99.90
5476;DHT22;2760;50.000;9.194;2023-02-20T00:31:04;7.10;99.90
5476;DHT22;2760;50.000;9.194;2023-02-20T00:33:32;8.90;99.90
5476;DHT22;2760;50.000;9.194;2023-02-20T00:35:59;10.60;99.90
5476;DHT22;2760;50.000;9.194;2023-02-20T00:38:26;9.30;99.90
5476;DHT22;2760;50.000;9.194;2023-02-20T00:40:53;9.90;99.90
5476;DHT22;2760;50.000;9.194;2023-02-20T00:43:24;9.30;99.90
5476;DHT22;2760;50.000;9.194;2023-02-20T00:45:51;8.70;99.90
5476;DHT22;2760;50.000;9.194;2023-02-20T00:48:20;10.80;99.90
5476;DHT22;2760;50.000;9.194;2023-02-20T00:51:09;10.40;99.90
5476;DHT22;2760;50.000;9.194;2023-02-20T00:53:36;8.20;99.90
5476;DHT22;2760;50.000;9.194;2023-02-20T00:56:03;6.80;99.90
5476;DHT22;2760;50.000;9.194;2023-02-20T00:58:33;8.60;99.90
5476;DHT22;2760;50.000;9.194;2023-02-20T01:01:00;8.70;99.90
5476;DHT22;2760;50.000;9.194;2023-02-20T01:03:27;9.20;99.90
5476;DHT22;2760;50.000;9.194;2023-02-20T01:05:54;11.00;99.90
5476;DHT22;2760;50.000;9.194;2023-02-20T01:08:21;8.60;99.90
5476;DHT22;2760;50.000;9.194;2023-02-20T01:10:50;8.50;99.90
5476;DHT22;2760;50.000;9.194;2023-02-20T01:13:17;10.70;99.90
5476;DHT22;2760;50.000;9.194;2023-02-20T01:15:46;8.70;99.90
5476;DHT22;2760;50.000;9.194;2023-02-20T01:18:14;8.60;99.90
5476;DHT22;2760;50.000;9.194;2023-02-20T01:20:42;8.50;99.90
5476;DHT22;2760;50.000;9.194;2023-02-20T01:23:09;10.00;99.90
5476;DHT22;2760;50.000;9.194;2023-02-20T01:25:36;8.30;99.90
5476;DHT22;2760;50.000;9.194;2023-02-20T01:28:03;8.30;99.90
5476;DHT22;2760;50.000;9.194;2023-02-20T01:30:34;8.20;99.90
5476;DHT22;2760;50.000;9.194;2023-02-20T01:33:03;8.10;99.90
5476;DHT22;2760;50.000;9.194;2023-02-20T01:35:30;10.60;99.90
5476;DHT22;2760;50.000;9.194;2023-02-20T01:37:58;9.80;99.90
5476;DHT22;2760;50.000;9.194;2023-02-20T01:40:26;8.10;99.90
5476;DHT22;2760;50.000;9.194;2023-02-20T01:42:53;8.10;99.90
5476;DHT22;2760;50.000;9.194;2023-02-20T01:45:32;9.40;99.90
5476;DHT22;2760;50.000;9.194;2023-02-20T01:48:04;8.10;99.90
5476;DHT22;2760;50.000;9.194;2023-02-20T01:50:34;8.00;99.90
5476;DHT22;2760;50.000;9.194;2023-02-20T01:53:05;8.70;99.90
5476;DHT22;2760;50.000;9.194;2023-02-20T01:55:38;9.90;99.90
5476;DHT22;2760;50.000;9.194;2023-02-20T01:58:13;10.30;99.90
5476;DHT22;2760;50.000;9.194;2023-02-20T02:00:42;9.50;99.90
5476;DHT22;2760;50.000;9.194;2023-02-20T02:03:13;7.40;99.90
5476;DHT22;2760;50.000;9.194;2023-02-20T02:05:44;7.90;99.90
5476;DHT22;2760;50.000;9.194;2023-02-20T02:08:15;8.00;99.90
5476;DHT22;2760;50.000;9.194;2023-02-20T02:10:51;7.90;99.90
5476;DHT22;2760;50.000;9.194;2023-02-20T02:13:18;8.00;99.90
5476;DHT22;2760;50.000;9.194;2023-02-20T02:15:50;9.40;99.90
5476;DHT22;2760;50.000;9.194;2023-02-20T02:18:28;7.80;99.90
5476;DHT22;2760;50.000;9.194;2023-02-20T02:21:36;8.00;99.90
5476;DHT22;2760;50.000;9.194;2023-02-20T02:24:41;7.80;99.90
5476;DHT22;2760;50.000;9.194;2023-02-20T02:30:31;7.70;99.90
5476;DHT22;2760;50.000;9.194;2023-02-20T02:39:36;7.50;99.90
5476;DHT22;2760;50.000;9.194;2023-02-20T02:42:10;7.40;99.90
5476;DHT22;2760;50.000;9.194;2023-02-20T02:44:45;7.30;99.90
5476;DHT22;2760;50.000;9.194;2023-02-20T02:47:19;9.70;99.90
5476;DHT22;2760;50.000;9.194;2023-02-20T02:49:52;7.30;99.90
5476;DHT22;2760;50.000;9.194;2023-02-20T02:52:23;9.40;99.90
5476;DHT22;2760;50.000;9.194;2023-02-20T02:55:18;9.10;99.90
5476;DHT22;2760;50.000;9.194;2023-02-20T02:57:47;8.60;99.90
5476;DHT22;2760;50.000;9.194;2023-02-20T03:00:16;8.90;99.90
5476;DHT22;2760;50.000;9.194;2023-02-20T03:02:50;7.50;99.90
5476;DHT22;2760;50.000;9.194;2023-02-20T03:05:23;7.50;99.90
5476;DHT22;2760;50.000;9.194;2023-02-20T03:07:53;7.30;99.90
5476;DHT22;2760;50.000;9.194;2023-02-20T03:10:24;7.10;99.90
5476;DHT22;2760;50.000;9.194;2023-02-20T03:13:01;8.70;99.90
5476;DHT22;2760;50.000;9.194;2023-02-20T03:15:35;7.20;99.90
5476;DHT22;2760;50.000;9.194;2023-02-20T03:18:17;7.40;99.90
5476;DHT22;2760;50.000;9.194;2023-02-20T03:20:49;7.40;99.90
5476;DHT22;2760;50.000;9.194;2023-02-20T03:23:19;9.00;99.90
5476;DHT22;2760;50.000;9.194;2023-02-20T03:25:53;8.30;99.90
5476;DHT22;2760;50.000;9.194;2023-02-20T03:28:24;7.20;99.90
5476;DHT22;2760;50.000;9.194;2023-02-20T03:30:55;7.10;99.90
5476;DHT22;2760;50.000;9.194;2023-02-20T03:33:30;6.00;99.90
5476;DHT22;2760;50.000;9.194;2023-02-20T03:36:19;6.90;99.90
5476;DHT22;2760;50.000;9.194;2023-02-20T03:39:07;6.90;99.90
5476;DHT22;2760;50.000;9.194;2023-02-20T03:41:55;7.60;99.90
5476;DHT22;2760;50.000;9.194;2023-02-20T03:44:45;8.20;99.90
5476;DHT22;2760;50.000;9.194;2023-02-20T03:47:15;6.60;99.90
5476;DHT22;2760;50.000;9.194;2023-02-20T03:49:45;8.70;99.90
5476;DHT22;2760;50.000;9.194;2023-02-20T03:52:16;6.70;99.90
5476;DHT22;2760;50.000;9.194;2023-02-20T03:54:43;5.60;99.90
5476;DHT22;2760;50.000;9.194;2023-02-20T03:57:16;7.60;99.90
5476;DHT22;2760;50.000;9.194;2023-02-20T03:59:49;6.40;99.90
5476;DHT22;2760;50.000;9.194;2023-02-20T04:02:20;8.30;99.90
5476;DHT22;2760;50.000;9.194;2023-02-20T04:04:51;7.70;99.90
5476;DHT22;2760;50.000;9.194;2023-02-20T04:07:23;8.20;99.90
5476;DHT22;2760;50.000;9.194;2023-02-20T04:09:52;6.10;99.90
5476;DHT22;2760;50.000;9.194;2023-02-20T04:12:23;8.40;99.90
5476;DHT22;2760;50.000;9.194;2023-02-20T04:14:53;8.00;99.90
5476;DHT22;2760;50.000;9.194;2023-02-20T04:17:24;6.00;99.90
5476;DHT22;2760;50.000;9.194;2023-02-20T04:19:52;6.00;99.90
5476;DHT22;2760;50.000;9.194;2023-02-20T04:22:23;6.00;99.90
5476;DHT22;2760;50.000;9.194;2023-02-20T04:24:57;6.10;99.90
5476;DHT22;2760;50.000;9.194;2023-02-20T04:27:30;7.30;99.90
5476;DHT22;2760;50.000;9.194;2023-02-20T04:29:59;6.00;99.90
5476;DHT22;2760;50.000;9.194;2023-02-20T04:32:26;8.40;99.90
5476;DHT22;2760;50.000;9.194;2023-02-20T04:34:55;7.90;99.90
5476;DHT22;2760;50.000;9.194;2023-02-20T04:37:22;6.00;99.90
5476;DHT22;2760;50.000;9.194;2023-02-20T04:39:52;7.70;99.90
5476;DHT22;2760;50.000;9.194;2023-02-20T04:42:20;7.50;99.90
5476;DHT22;2760;50.000;9.194;2023-02-20T04:44:49;6.10;99.90
5476;DHT22;2760;50.000;9.194;2023-02-20T04:47:17;8.20;99.90
5476;DHT22;2760;50.000;9.194;2023-02-20T04:49:44;5.70;99.90
5476;DHT22;2760;50.000;9.194;2023-02-20T04:52:16;5.70;99.90
5476;DHT22;2760;50.000;9.194;2023-02-20T04:54:43;5.10;99.90
5476;DHT22;2760;50.000;9.194;2023-02-20T04:57:12;7.90;99.90
5476;DHT22;2760;50.000;9.194;2023-02-20T04:59:40;7.20;99.90
5476;DHT22;2760;50.000;9.194;2023-02-20T05:02:10;7.90;99.90
5476;DHT22;2760;50.000;9.194;2023-02-20T05:04:37;5.50;99.90
5476;DHT22;2760;50.000;9.194;2023-02-20T05:07:05;4.00;99.90
5476;DHT22;2760;50.000;9.194;2023-02-20T05:09:32;7.90;99.90
5476;DHT22;2760;50.000;9.194;2023-02-20T05:11:59;5.40;99.90
5476;DHT22;2760;50.000;9.194;2023-02-20T05:14:26;5.60;99.90
5476;DHT22;2760;50.000;9.194;2023-02-20T05:16:53;5.50;99.90
5476;DHT22;2760;50.000;9.194;2023-02-20T05:19:22;5.40;99.90
5476;DHT22;2760;50.000;9.194;2023-02-20T05:21:51;5.50;99.90
5476;DHT22;2760;50.000;9.194;2023-02-20T05:24:35;5.50;99.90
5476;DHT22;2760;50.000;9.194;2023-02-20T05:27:02;5.50;99.90
5476;DHT22;2760;50.000;9.194;2023-02-20T05:29:30;5.40;99.90
5476;DHT22;2760;50.000;9.194;2023-02-20T05:31:57;5.30;99.90
5476;DHT22;2760;50.000;9.194;2023-02-20T05:34:26;6.30;99.90
5476;DHT22;2760;50.000;9.194;2023-02-20T05:36:53;5.30;99.90
5476;DHT22;2760;50.000;9.194;2023-02-20T05:39:21;5.30;99.90
5476;DHT22;2760;50.000;9.194;2023-02-20T05:41:49;7.30;99.90
5476;DHT22;2760;50.000;9.194;2023-02-20T05:44:16;6.60;99.90
5476;DHT22;2760;50.000;9.194;2023-02-20T05:46:43;5.20;99.90
5476;DHT22;2760;50.000;9.194;2023-02-20T05:49:10;6.90;99.90
5476;DHT22;2760;50.000;9.194;2023-02-20T05:51:39;5.10;99.90
5476;DHT22;2760;50.000;9.194;2023-02-20T05:54:06;5.00;99.90
5476;DHT22;2760;50.000;9.194;2023-02-20T05:56:34;5.10;99.90
5476;DHT22;2760;50.000;9.194;2023-02-20T05:59:01;4.90;99.90
5476;DHT22;2760;50.000;9.194;2023-02-20T06:01:30;4.80;99.90
5476;DHT22;2760;50.000;9.194;2023-02-20T06:03:57;4.70;99.90
5476;DHT22;2760;50.000;9.194;2023-02-20T06:06:31;4.70;99.90
5476;DHT22;2760;50.000;9.194;2023-02-20T06:09:04;4.80;99.90
5476;DHT22;2760;50.000;9.194;2023-02-20T06:11:32;4.80;99.90
5476;DHT22;2760;50.000;9.194;2023-02-20T06:14:00;4.70;99.90
5476;DHT22;2760;50.000;9.194;2023-02-20T06:16:29;4.70;99.90
5476;DHT22;2760;50.000;9.194;2023-02-20T06:18:56;4.70;99.90
5476;DHT22;2760;50.000;9.194;2023-02-20T06:21:25;4.50;99.90
5476;DHT22;2760;50.000;9.194;2023-02-20T06:23:53;5.40;99.90
5476;DHT22;2760;50.000;9.194;2023-02-20T06:26:22;6.10;99.90
5476;DHT22;2760;50.000;9.194;2023-02-20T06:28:50;4.70;99.90
5476;DHT22;2760;50.000;9.194;2023-02-20T06:31:26;4.70;99.90
5476;DHT22;2760;50.000;9.194;2023-02-20T06:33:53;4.70;99.90
5476;DHT22;2760;50.000;9.194;2023-02-20T06:36:23;4.70;99.90
5476;DHT22;2760;50.000;9.194;2023-02-20T06:38:50;4.60;99.90
5476;DHT22;2760;50.000;9.194;2023-02-20T06:41:17;4.60;99.90
5476;DHT22;2760;50.000;9.194;2023-02-20T06:43:47;6.00;99.90
5476;DHT22;2760;50.000;9.194;2023-02-20T06:46:15;4.90;99.90
5476;DHT22;2760;50.000;9.194;2023-02-20T06:48:45;4.70;99.90
5476;DHT22;2760;50.000;9.194;2023-02-20T06:51:18;4.70;99.90
5476;DHT22;2760;50.000;9.194;2023-02-20T06:53:45;4.80;99.90
5476;DHT22;2760;50.000;9.194;2023-02-20T06:56:14;4.70;99.90
5476;DHT22;2760;50.000;9.194;2023-02-20T06:58:45;4.70;99.90
5476;DHT22;2760;50.000;9.194;2023-02-20T07:01:13;4.70;99.90
5476;DHT22;2760;50.000;9.194;2023-02-20T07:03:40;4.70;99.90
5476;DHT22;2760;50.000;9.194;2023-02-20T07:06:07;4.90;99.90
5476;DHT22;2760;50.000;9.194;2023-02-20T07:08:34;4.90;99.90
5476;DHT22;2760;50.000;9.194;2023-02-20T07:11:01;5.00;99.90
5476;DHT22;2760;50.000;9.194;2023-02-20T07:13:28;5.40;99.90
5476;DHT22;2760;50.000;9.194;2023-02-20T07:16:05;4.90;99.90
5476;DHT22;2760;50.000;9.194;2023-02-20T07:18:32;5.10;99.90
5476;DHT22;2760;50.000;9.194;2023-02-20T07:20:59;5.10;99.90
5476;DHT22;2760;50.000;9.194;2023-02-20T07:23:26;6.90;99.90
5476;DHT22;2760;50.000;9.194;2023-02-20T07:25:53;5.20;99.90
5476;DHT22;2760;50.000;9.194;2023-02-20T07:28:20;5.10;99.90
5476;DHT22;2760;50.000;9.194;2023-02-20T07:30:48;5.30;99.90
5476;DHT22;2760;50.000;9.194;2023-02-20T07:33:17;5.50;99.90
5476;DHT22;2760;50.000;9.194;2023-02-20T07:35:45;5.50;99.90
5476;DHT22;2760;50.000;9.194;2023-02-20T07:38:14;7.50;99.90
5476;DHT22;2760;50.000;9.194;2023-02-20T07:40:41;5.70;99.90
5476;DHT22;2760;50.000;9.194;2023-02-20T07:43:08;7.80;99.90
5476;DHT22;2760;50.000;9.194;2023-02-20T07:45:37;6.00;99.90
5476;DHT22;2760;50.000;9.194;2023-02-20T07:48:04;7.50;99.90
5476;DHT22;2760;50.000;9.194;2023-02-20T07:50:33;6.10;99.90
5476;DHT22;2760;50.000;9.194;2023-02-20T07:53:00;6.40;99.90
5476;DHT22;2760;50.000;9.194;2023-02-20T07:55:28;6.80;99.90
5476;DHT22;2760;50.000;9.194;2023-02-20T07:57:55;5.60;99.90
5476;DHT22;2760;50.000;9.194;2023-02-20T08:00:24;7.30;99.90
5476;DHT22;2760;50.000;9.194;2023-02-20T08:02:51;7.70;99.90
5476;DHT22;2760;50.000;9.194;2023-02-20T08:05:19;7.30;99.90
5476;DHT22;2760;50.000;9.194;2023-02-20T08:07:48;7.40;99.90
5476;DHT22;2760;50.000;9.194;2023-02-20T08:10:19;7.40;99.90
5476;DHT22;2760;50.000;9.194;2023-02-20T08:12:46;7.50;99.90
5476;DHT22;2760;50.000;9.194;2023-02-20T08:15:14;9.40;99.90
5476;DHT22;2760;50.000;9.194;2023-02-20T08:17:41;7.70;99.90
5476;DHT22;2760;50.000;9.194;2023-02-20T08:20:10;8.90;99.90
5476;DHT22;2760;50.000;9.194;2023-02-20T08:22:38;8.00;99.90
5476;DHT22;2760;50.000;9.194;2023-02-20T08:25:09;8.10;99.90
5476;DHT22;2760;50.000;9.194;2023-02-20T08:27:40;10.50;99.90
5476;DHT22;2760;50.000;9.194;2023-02-20T08:30:10;7.50;99.90
5476;DHT22;2760;50.000;9.194;2023-02-20T08:32:37;8.10;99.90
5476;DHT22;2760;50.000;9.194;2023-02-20T08:35:05;8.20;99.90
5476;DHT22;2760;50.000;9.194;2023-02-20T08:37:32;5.90;99.90
5476;DHT22;2760;50.000;9.194;2023-02-20T08:39:59;8.10;99.90
5476;DHT22;2760;50.000;9.194;2023-02-20T08:42:33;8.00;99.90
5476;DHT22;2760;50.000;9.194;2023-02-20T08:45:04;6.90;99.90
5476;DHT22;2760;50.000;9.194;2023-02-20T08:47:32;8.40;99.90
5476;DHT22;2760;50.000;9.194;2023-02-20T08:49:59;8.50;99.90
5476;DHT22;2760;50.000;9.194;2023-02-20T08:52:27;8.40;99.90
5476;DHT22;2760;50.000;9.194;2023-02-20T08:54:58;8.50;99.90
5476;DHT22;2760;50.000;9.194;2023-02-20T08:57:25;10.10;99.90
5476;DHT22;2760;50.000;9.194;2023-02-20T08:59:55;9.80;99.90
5476;DHT22;2760;50.000;9.194;2023-02-20T09:02:23;8.60;99.90
5476;DHT22;2760;50.000;9.194;2023-02-20T09:04:55;9.80;99.90
5476;DHT22;2760;50.000;9.194;2023-02-20T09:07:23;8.80;99.90
5476;DHT22;2760;50.000;9.194;2023-02-20T09:09:50;8.90;99.90
5476;DHT22;2760;50.000;9.194;2023-02-20T09:12:22;9.10;99.90
5476;DHT22;2760;50.000;9.194;2023-02-20T09:14:49;9.30;99.90
5476;DHT22;2760;50.000;9.194;2023-02-20T09:17:17;9.40;99.90
5476;DHT22;2760;50.000;9.194;2023-02-20T09:19:58;10.70;99.90
5476;DHT22;2760;50.000;9.194;2023-02-20T09:22:26;9.40;99.90
5476;DHT22;2760;50.000;9.194;2023-02-20T09:24:56;9.50;99.90
5476;DHT22;2760;50.000;9.194;2023-02-20T09:27:23;9.50;99.90
5476;DHT22;2760;50.000;9.194;2023-02-20T09:29:50;9.70;99.90
5476;DHT22;2760;50.000;9.194;2023-02-20T09:32:19;9.80;99.90
5476;DHT22;2760;50.000;9.194;2023-02-20T09:34:46;9.80;99.90
5476;DHT22;2760;50.000;9.194;2023-02-20T09:39:41;10.10;99.90
5476;DHT22;2760;50.000;9.194;2023-02-20T09:42:21;12.30;99.90
5476;DHT22;2760;50.000;9.194;2023-02-20T09:44:58;10.40;99.90
5476;DHT22;2760;50.000;9.194;2023-02-20T09:47:46;10.50;99.90
5476;DHT22;2760;50.000;9.194;2023-02-20T09:50:59;12.10;99.90
5476;DHT22;2760;50.000;9.194;2023-02-20T09:53:31;10.50;99.90
5476;DHT22;2760;50.000;9.194;2023-02-20T09:56:02;10.50;99.90
5476;DHT22;2760;50.000;9.194;2023-02-20T09:58:42;10.60;99.90
5476;DHT22;2760;50.000;9.194;2023-02-20T10:01:12;7.80;99.90
5476;DHT22;2760;50.000;9.194;2023-02-20T10:03:52;11.10;99.90
5476;DHT22;2760;50.000;9.194;2023-02-20T10:06:22;13.80;99.90
5476;DHT22;2760;50.000;9.194;2023-02-20T10:08:53;12.20;99.90
5476;DHT22;2760;50.000;9.194;2023-02-20T10:11:35;10.90;99.90
5476;DHT22;2760;50.000;9.194;2023-02-20T10:14:19;9.70;99.90
5476;DHT22;2760;50.000;9.194;2023-02-20T10:17:12;12.10;99.90
5476;DHT22;2760;50.000;9.194;2023-02-20T10:19:55;12.00;99.90
5476;DHT22;2760;50.000;9.194;2023-02-20T10:22:29;13.10;99.90
5476;DHT22;2760;50.000;9.194;2023-02-20T10:25:09;12.50;99.90
5476;DHT22;2760;50.000;9.194;2023-02-20T10:27:50;12.80;99.90
5476;DHT22;2760;50.000;9.194;2023-02-20T10:30:26;12.90;99.90
5476;DHT22;2760;50.000;9.194;2023-02-20T10:33:00;12.10;99.90
5476;DHT22;2760;50.000;9.194;2023-02-20T10:35:37;13.80;99.90
5476;DHT22;2760;50.000;9.194;2023-02-20T10:38:09;11.60;99.90
5476;DHT22;2760;50.000;9.194;2023-02-20T10:40:45;13.30;99.90
5476;DHT22;2760;50.000;9.194;2023-02-20T10:43:17;14.90;99.90
5476;DHT22;2760;50.000;9.194;2023-02-20T10:45:51;14.10;99.90
5476;DHT22;2760;50.000;9.194;2023-02-20T10:48:22;14.10;99.90
5476;DHT22;2760;50.000;9.194;2023-02-20T10:50:57;14.10;99.90
5476;DHT22;2760;50.000;9.194;2023-02-20T10:53:32;14.20;99.90
5476;DHT22;2760;50.000;9.194;2023-02-20T10:56:05;13.90;99.90
5476;DHT22;2760;50.000;9.194;2023-02-20T10:58:37;14.10;99.90
5476;DHT22;2760;50.000;9.194;2023-02-20T11:01:09;16.10;99.90
5476;DHT22;2760;50.000;9.194;2023-02-20T11:03:41;14.70;99.90
5476;DHT22;2760;50.000;9.194;2023-02-20T11:06:15;16.40;99.90
5476;DHT22;2760;50.000;9.194;2023-02-20T11:08:43;14.70;99.90
5476;DHT22;2760;50.000;9.194;2023-02-20T11:11:26;15.10;99.90
5476;DHT22;2760;50.000;9.194;2023-02-20T11:13:54;15.20;99.90
5476;DHT22;2760;50.000;9.194;2023-02-20T11:16:27;15.30;99.90
5476;DHT22;2760;50.000;9.194;2023-02-20T11:19:03;15.50;99.90
5476;DHT22;2760;50.000;9.194;2023-02-20T11:21:36;15.60;99.90
5476;DHT22;2760;50.000;9.194;2023-02-20T11:27:04;15.90;99.60
5476;DHT22;2760;50.000;9.194;2023-02-20T11:29:47;14.40;98.60
5476;DHT22;2760;50.000;9.194;2023-02-20T11:32:34;16.80;98.90
5476;DHT22;2760;50.000;9.194;2023-02-20T11:37:48;16.30;98.80
5476;DHT22;2760;50.000;9.194;2023-02-20T11:40:16;16.10;99.60
5476;DHT22;2760;50.000;9.194;2023-02-20T11:42:45;16.00;99.70
5476;DHT22;2760;50.000;9.194;2023-02-20T11:45:16;15.90;99.90
5476;DHT22;2760;50.000;9.194;2023-02-20T11:48:06;16.40;99.90
5476;DHT22;2760;50.000;9.194;2023-02-20T11:50:37;16.80;98.80
5476;DHT22;2760;50.000;9.194;2023-02-20T11:53:17;16.80;98.40
5476;DHT22;2760;50.000;9.194;2023-02-20T11:55:45;16.90;98.20
5476;DHT22;2760;50.000;9.194;2023-02-20T11:58:20;17.10;98.60
5476;DHT22;2760;50.000;9.194;2023-02-20T12:00:49;16.80;98.40
5476;DHT22;2760;50.000;9.194;2023-02-20T12:03:20;16.90;98.20
5476;DHT22;2760;50.000;9.194;2023-02-20T12:05:48;17.10;98.60
5476;DHT22;2760;50.000;9.194;2023-02-20T12:08:27;17.20;97.90
5476;DHT22;2760;50.000;9.194;2023-02-20T12:10:59;17.40;97.20
5476;DHT22;2760;50.000;9.194;2023-02-20T12:13:28;17.30;97.50
5476;DHT22;2760;50.000;9.194;2023-02-20T12:16:03;17.50;97.20
5476;DHT22;2760;50.000;9.194;2023-02-20T12:18:40;17.50;97.20
5476;DHT22;2760;50.000;9.194;2023-02-20T12:21:21;17.20;97.50
5476;DHT22;2760;50.000;9.194;2023-02-20T12:24:02;17.20;97.80
5476;DHT22;2760;50.000;9.194;2023-02-20T12:26:45;17.20;97.40
5476;DHT22;2760;50.000;9.194;2023-02-20T12:29:23;16.40;96.70
5476;DHT22;2760;50.000;9.194;2023-02-20T12:32:02;17.50;96.80
5476;DHT22;2760;50.000;9.194;2023-02-20T12:35:03;17.30;97.40
5476;DHT22;2760;50.000;9.194;2023-02-20T12:37:45;17.80;97.00
5476;DHT22;2760;50.000;9.194;2023-02-20T12:40:36;17.80;97.20
5476;DHT22;2760;50.000;9.194;2023-02-20T12:43:13;18.30;96.10
5476;DHT22;2760;50.000;9.194;2023-02-20T12:45:47;18.30;96.40
5476;DHT22;2760;50.000;9.194;2023-02-20T12:48:53;17.80;96.60
5476;DHT22;2760;50.000;9.194;2023-02-20T12:51:36;18.30;96.00
5476;DHT22;2760;50.000;9.194;2023-02-20T12:54:18;18.40;95.70
5476;DHT22;2760;50.000;9.194;2023-02-20T12:57:02;18.00;96.40
5476;DHT22;2760;50.000;9.194;2023-02-20T12:59:34;17.80;95.60
5476;DHT22;2760;50.000;9.194;2023-02-20T13:02:17;17.80;94.90
5476;DHT22;2760;50.000;9.194;2023-02-20T13:04:49;18.30;94.80
5476;DHT22;2760;50.000;9.194;2023-02-20T13:07:22;18.20;95.00
5476;DHT22;2760;50.000;9.194;2023-02-20T13:09:58;18.40;94.60
5476;DHT22;2760;50.000;9.194;2023-02-20T13:12:29;18.30;94.80
5476;DHT22;2760;50.000;9.194;2023-02-20T13:15:06;18.40;94.60
5476;DHT22;2760;50.000;9.194;2023-02-20T13:17:39;18.60;94.40
5476;DHT22;2760;50.000;9.194;2023-02-20T13:20:18;18.30;94.60
5476;DHT22;2760;50.000;9.194;2023-02-20T13:23:00;18.40;94.30
5476;DHT22;2760;50.000;9.194;2023-02-20T13:25:35;18.30;93.90
5476;DHT22;2760;50.000;9.194;2023-02-20T13:28:24;18.70;93.90
5476;DHT22;2760;50.000;9.194;2023-02-20T13:31:39;18.60;93.50
5476;DHT22;2760;50.000;9.194;2023-02-20T13:34:36;18.70;93.50
5476;DHT22;2760;50.000;9.194;2023-02-20T13:37:22;18.70;93.60
5476;DHT22;2760;50.000;9.194;2023-02-20T13:39:52;18.30;94.40
5476;DHT22;2760;50.000;9.194;2023-02-20T13:42:33;18.60;93.70
5476;DHT22;2760;50.000;9.194;2023-02-20T13:45:36;18.40;93.60
5476;DHT22;2760;50.000;9.194;2023-02-20T13:48:17;18.30;93.70
5476;DHT22;2760;50.000;9.194;2023-02-20T13:50:44;18.10;93.60
5476;DHT22;2760;50.000;9.194;2023-02-20T13:53:11;18.00;93.90
5476;DHT22;2760;50.000;9.194;2023-02-20T13:55:40;17.80;93.80
5476;DHT22;2760;50.000;9.194;2023-02-20T13:58:13;18.00;93.80
5476;DHT22;2760;50.000;9.194;2023-02-20T14:00:48;17.90;94.00
5476;DHT22;2760;50.000;9.194;2023-02-20T14:03:30;17.40;93.90
5476;DHT22;2760;50.000;9.194;2023-02-20T14:06:07;17.80;94.10
5476;DHT22;2760;50.000;9.194;2023-02-20T14:08:37;17.60;94.10
5476;DHT22;2760;50.000;9.194;2023-02-20T14:11:08;17.60;94.10
5476;DHT22;2760;50.000;9.194;2023-02-20T14:13:36;17.40;94.30
5476;DHT22;2760;50.000;9.194;2023-02-20T14:16:23;16.90;94.90
5476;DHT22;2760;50.000;9.194;2023-02-20T14:18:56;17.10;95.00
5476;DHT22;2760;50.000;9.194;2023-02-20T14:21:23;16.60;95.10
5476;DHT22;2760;50.000;9.194;2023-02-20T14:23:51;16.90;95.00
5476;DHT22;2760;50.000;9.194;2023-02-20T14:26:20;16.80;94.50
5476;DHT22;2760;50.000;9.194;2023-02-20T14:28:49;16.80;94.90
5476;DHT22;2760;50.000;9.194;2023-02-20T14:31:23;16.60;94.80
5476;DHT22;2760;50.000;9.194;2023-02-20T14:33:53;16.60;95.20
5476;DHT22;2760;50.000;9.194;2023-02-20T14:36:37;16.80;94.80
5476;DHT22;2760;50.000;9.194;2023-02-20T14:39:20;16.70;94.50
5476;DHT22;2760;50.000;9.194;2023-02-20T14:41:56;16.20;94.10
5476;DHT22;2760;50.000;9.194;2023-02-20T14:44:27;16.80;94.20
5476;DHT22;2760;50.000;9.194;2023-02-20T14:47:03;14.70;93.40
5476;DHT22;2760;50.000;9.194;2023-02-20T14:49:33;16.60;93.60
5476;DHT22;2760;50.000;9.194;2023-02-20T14:52:14;16.90;94.20
5476;DHT22;2760;50.000;9.194;2023-02-20T14:54:43;16.90;93.90
5476;DHT22;2760;50.000;9.194;2023-02-20T14:57:21;16.40;94.20
5476;DHT22;2760;50.000;9.194;2023-02-20T14:59:48;16.40;94.30
5476;DHT22;2760;50.000;9.194;2023-02-20T15:02:19;16.50;94.40
5476;DHT22;2760;50.000;9.194;2023-02-20T15:04:47;16.50;94.60
5476;DHT22;2760;50.000;9.194;2023-02-20T15:07:16;16.60;94.70
5476;DHT22;2760;50.000;9.194;2023-02-20T15:09:45;16.30;94.90
5476;DHT22;2760;50.000;9.194;2023-02-20T15:12:22;16.10;94.40
5476;DHT22;2760;50.000;9.194;2023-02-20T15:14:55;17.10;95.70
5476;DHT22;2760;50.000;9.194;2023-02-20T15:17:26;13.80;93.60
5476;DHT22;2760;50.000;9.194;2023-02-20T15:19:53;15.80;95.20
5476;DHT22;2760;50.000;9.194;2023-02-20T15:22:23;15.90;95.20
5476;DHT22;2760;50.000;9.194;2023-02-20T15:24:51;16.00;95.00
5476;DHT22;2760;50.000;9.194;2023-02-20T15:27:21;16.00;95.20
5476;DHT22;2760;50.000;9.194;2023-02-20T15:30:08;16.30;95.50
5476;DHT22;2760;50.000;9.194;2023-02-20T15:32:39;15.70;95.10
5476;DHT22;2760;50.000;9.194;2023-02-20T15:35:13;15.60;95.60
5476;DHT22;2760;50.000;9.194;2023-02-20T15:37:40;15.80;95.20
5476;DHT22;2760;50.000;9.194;2023-02-20T15:40:18;15.70;95.60
5476;DHT22;2760;50.000;9.194;2023-02-20T15:42:46;15.50;95.80
5476;DHT22;2760;50.000;9.194;2023-02-20T15:45:21;15.40;95.80
5476;DHT22;2760;50.000;9.194;2023-02-20T15:47:49;14.10;94.70
5476;DHT22;2760;50.000;9.194;2023-02-20T15:50:19;15.60;96.00
5476;DHT22;2760;50.000;9.194;2023-02-20T15:52:55;15.30;96.20
5476;DHT22;2760;50.000;9.194;2023-02-20T15:55:32;15.30;95.80
5476;DHT22;2760;50.000;9.194;2023-02-20T15:58:00;15.40;95.90
5476;DHT22;2760;50.000;9.194;2023-02-20T16:00:29;15.20;95.90
5476;DHT22;2760;50.000;9.194;2023-02-20T16:02:59;15.10;96.00
5476;DHT22;2760;50.000;9.194;2023-02-20T16:05:27;15.10;96.20
5476;DHT22;2760;50.000;9.194;2023-02-20T16:07:57;14.90;96.40
5476;DHT22;2760;50.000;9.194;2023-02-20T16:10:24;14.70;96.50
5476;DHT22;2760;50.000;9.194;2023-02-20T16:12:52;16.50;97.40
5476;DHT22;2760;50.000;9.194;2023-02-20T16:15:20;14.60;96.60
5476;DHT22;2760;50.000;9.194;2023-02-20T16:17:51;14.50;96.70
5476;DHT22;2760;50.000;9.194;2023-02-20T16:20:25;14.50;96.50
5476;DHT22;2760;50.000;9.194;2023-02-20T16:22:53;16.20;97.70
5476;DHT22;2760;50.000;9.194;2023-02-20T16:25:22;14.30;96.60
5476;DHT22;2760;50.000;9.194;2023-02-20T16:27:51;16.10;97.70
5476;DHT22;2760;50.000;9.194;2023-02-20T16:30:21;15.50;97.30
5476;DHT22;2760;50.000;9.194;2023-02-20T16:32:49;14.20;97.00
5476;DHT22;2760;50.000;9.194;2023-02-20T16:35:20;14.20;97.20
5476;DHT22;2760;50.000;9.194;2023-02-20T16:37:47;14.00;97.00
5476;DHT22;2760;50.000;9.194;2023-02-20T16:40:14;15.00;97.60
5476;DHT22;2760;50.000;9.194;2023-02-20T16:42:48;12.20;96.20
5476;DHT22;2760;50.000;9.194;2023-02-20T16:45:19;14.80;97.30
5476;DHT22;2760;50.000;9.194;2023-02-20T16:47:50;14.00;97.10
5476;DHT22;2760;50.000;9.194;2023-02-20T16:50:21;13.90;97.10
5476;DHT22;2760;50.000;9.194;2023-02-20T16:52:52;14.10;97.40
5476;DHT22;2760;50.000;9.194;2023-02-20T16:55:24;15.10;98.20
5476;DHT22;2760;50.000;9.194;2023-02-20T16:57:54;13.60;97.60
5476;DHT22;2760;50.000;9.194;2023-02-20T17:00:24;14.30;98.30